createdAt,value
2022-08-10T00:02:11.416Z,17.60
2022-08-10T00:05:55.438Z,17.60
2022-08-10T00:09:50.606Z,17.60
2022-08-10T00:13:33.525Z,17.60
2022-08-10T00:17:15.490Z,17.60
2022-08-10T00:20:57.462Z,17.50
2022-08-10T00:24:43.144Z,17.50
2022-08-10T00:28:25.477Z,17.50
2022-08-10T00:32:07.527Z,17.40
2022-08-10T00:35:50.304Z,17.40
2022-08-10T00:39:35.894Z,17.40
2022-08-10T00:43:23.912Z,17.30
2022-08-10T00:47:07.446Z,17.30
2022-08-10T00:51:09.495Z,17.30
2022-08-10T00:54:51.810Z,17.30
2022-08-10T00:58:34.899Z,17.30
2022-08-10T01:02:16.909Z,17.20
2022-08-10T01:06:08.952Z,17.20
2022-08-10T01:10:44.468Z,17.20
2022-08-10T01:14:49.605Z,17.10
2022-08-10T01:18:49.030Z,17.10
2022-08-10T01:22:47.741Z,17.10
2022-08-10T01:27:07.284Z,17.10
2022-08-10T01:30:53.775Z,17.00
2022-08-10T01:34:49.759Z,16.90
2022-08-10T01:38:34.795Z,16.90
2022-08-10T01:42:20.069Z,16.80
2022-08-10T01:46:05.294Z,16.70
2022-08-10T01:49:49.240Z,16.70
2022-08-10T01:54:09.251Z,16.60
2022-08-10T01:57:55.693Z,16.50
2022-08-10T02:01:42.344Z,16.50
2022-08-10T02:05:26.368Z,16.40
2022-08-10T02:09:11.295Z,16.30
2022-08-10T02:12:56.720Z,16.30
2022-08-10T02:16:39.849Z,16.20
2022-08-10T02:20:25.991Z,16.10
2022-08-10T02:24:10.032Z,16.10
2022-08-10T02:27:53.731Z,16.00
2022-08-10T02:31:37.309Z,16.00
2022-08-10T02:35:22.301Z,15.90
2022-08-10T02:39:07.557Z,15.80
2022-08-10T02:45:19.721Z,15.80
2022-08-10T02:47:20.106Z,15.70
2022-08-10T02:51:08.801Z,15.70
2022-08-10T02:55:17.068Z,15.60
2022-08-10T02:59:21.914Z,15.50
2022-08-10T03:03:06.018Z,15.40
2022-08-10T03:07:01.308Z,15.40
2022-08-10T03:10:46.033Z,15.40
2022-08-10T03:14:30.298Z,15.40
2022-08-10T03:18:13.730Z,15.30
2022-08-10T03:21:56.950Z,15.20
2022-08-10T03:25:39.894Z,15.20
2022-08-10T03:29:23.801Z,15.10
2022-08-10T03:33:07.725Z,15.10
2022-08-10T03:36:49.895Z,15.00
2022-08-10T03:40:46.165Z,15.00
2022-08-10T03:44:33.704Z,14.90
2022-08-10T03:48:19.305Z,14.80
2022-08-10T03:52:02.021Z,14.80
2022-08-10T03:56:30.381Z,14.80
2022-08-10T03:59:47.303Z,14.70
2022-08-10T04:03:29.400Z,14.60
2022-08-10T04:07:11.675Z,14.50
2022-08-10T04:10:53.933Z,14.50
2022-08-10T04:14:49.531Z,14.50
2022-08-10T04:18:34.591Z,14.40
2022-08-10T04:22:24.122Z,14.40
2022-08-10T04:26:06.574Z,14.40
2022-08-10T04:29:51.605Z,14.30
2022-08-10T04:33:35.093Z,14.30
2022-08-10T04:37:19.597Z,14.30
2022-08-10T04:41:02.094Z,14.30
2022-08-10T04:44:44.157Z,14.20
2022-08-10T04:48:40.577Z,14.20
2022-08-10T04:52:25.565Z,14.20
2022-08-10T04:56:08.827Z,14.20
2022-08-10T04:59:50.737Z,14.20
2022-08-10T05:03:32.669Z,14.10
2022-08-10T05:07:18.653Z,14.20
2022-08-10T05:11:01.084Z,14.10
2022-08-10T05:14:43.307Z,14.10
2022-08-10T05:18:25.282Z,14.10
2022-08-10T05:22:08.696Z,14.10
2022-08-10T05:25:51.180Z,14.00
2022-08-10T05:30:03.370Z,14.00
2022-08-10T05:33:54.315Z,14.00
2022-08-10T05:38:12.330Z,14.10
2022-08-10T05:46:16.811Z,14.30
2022-08-10T05:50:27.281Z,14.40
2022-08-10T05:54:15.075Z,14.60
2022-08-10T05:58:17.853Z,14.80
2022-08-10T06:02:32.829Z,15.10
2022-08-10T06:06:16.684Z,15.40
2022-08-10T06:10:01.279Z,16.00
2022-08-10T06:14:28.287Z,16.50
2022-08-10T06:22:21.396Z,17.90
2022-08-10T06:26:50.287Z,18.40
2022-08-10T06:31:21.668Z,19.00
2022-08-10T06:35:30.503Z,19.60
2022-08-10T06:39:32.350Z,20.20
2022-08-10T06:43:24.734Z,20.70
2022-08-10T06:48:13.143Z,21.20
2022-08-10T06:52:42.417Z,21.80
2022-08-10T06:57:16.714Z,22.30
2022-08-10T07:01:24.023Z,22.90
2022-08-10T07:05:11.410Z,23.40
2022-08-10T07:09:18.471Z,23.80
2022-08-10T07:13:04.562Z,24.10
2022-08-10T07:17:16.110Z,24.70
2022-08-10T07:21:43.062Z,25.50
2022-08-10T07:25:27.369Z,26.30
2022-08-10T07:29:54.326Z,27.00
2022-08-10T07:34:06.649Z,27.60
2022-08-10T07:37:51.403Z,28.30
2022-08-10T07:41:59.645Z,29.10
2022-08-10T07:45:44.417Z,30.00
2022-08-10T07:49:52.663Z,30.70
2022-08-10T07:54:21.136Z,31.30
2022-08-10T07:58:07.102Z,32.10
2022-08-10T08:02:35.704Z,32.70
2022-08-10T08:16:17.718Z,33.70
2022-08-10T08:20:38.481Z,33.40
2022-08-10T08:24:46.972Z,33.70
2022-08-10T08:28:36.458Z,34.60
2022-08-10T08:32:58.401Z,35.60
2022-08-10T08:38:32.248Z,37.00
2022-08-10T08:41:59.291Z,38.20
2022-08-10T08:46:32.457Z,39.10
2022-08-10T08:51:01.728Z,39.30
2022-08-10T08:56:04.389Z,39.80
2022-08-10T09:00:02.750Z,39.70
2022-08-10T09:04:31.289Z,39.60
2022-08-10T09:09:02.615Z,39.20
2022-08-10T09:13:32.457Z,39.10
2022-08-10T09:18:02.606Z,38.70
2022-08-10T09:22:18.464Z,38.40
2022-08-10T09:26:43.482Z,38.20
2022-08-10T09:36:21.166Z,38.20
2022-08-10T09:40:12.317Z,38.40
2022-08-10T09:43:57.809Z,38.30
2022-08-10T09:48:28.419Z,38.20
2022-08-10T09:52:59.434Z,38.00
2022-08-10T09:57:41.632Z,38.20
2022-08-10T10:02:02.417Z,38.00
2022-08-10T10:06:28.651Z,38.20
2022-08-10T10:10:58.539Z,38.30
2022-08-10T10:15:30.401Z,38.70
2022-08-10T10:24:29.674Z,38.70
2022-08-10T10:38:00.866Z,38.90
2022-08-10T10:42:48.144Z,39.10
2022-08-10T10:51:31.470Z,38.20
2022-08-10T10:56:14.182Z,37.30
2022-08-10T11:00:13.912Z,35.50
2022-08-10T11:04:03.408Z,33.60
2022-08-10T11:08:28.643Z,32.50
2022-08-10T11:12:55.701Z,31.50
2022-08-10T11:17:26.078Z,30.80
2022-08-10T11:21:57.919Z,30.10
2022-08-10T11:26:29.888Z,29.60
2022-08-10T11:35:10.143Z,28.80
2022-08-10T11:44:30.971Z,28.30
2022-08-10T11:49:04.116Z,28.10
2022-08-10T11:53:31.133Z,28.00
2022-08-10T12:10:07.577Z,27.80
2022-08-10T12:12:43.649Z,27.70
2022-08-10T12:17:12.439Z,27.60
2022-08-10T12:21:43.415Z,27.70
2022-08-10T12:44:11.814Z,27.60
2022-08-10T12:48:42.363Z,27.60
2022-08-10T12:57:45.213Z,27.80
2022-08-10T13:02:17.156Z,27.80
2022-08-10T13:12:34.956Z,27.90
2022-08-10T13:24:55.920Z,28.00
2022-08-10T13:46:07.890Z,28.30
2022-08-10T13:55:17.561Z,28.20
2022-08-10T14:04:16.753Z,28.20
2022-08-10T14:22:12.492Z,28.40
2022-08-10T14:26:42.522Z,28.40
2022-08-10T14:31:12.701Z,28.40
2022-08-10T14:40:12.969Z,28.60
2022-08-10T14:49:26.313Z,28.60
2022-08-10T15:02:53.439Z,28.80
2022-08-10T15:07:13.423Z,28.90
2022-08-10T15:12:14.804Z,28.90
2022-08-10T15:16:17.145Z,28.90
2022-08-10T15:20:26.572Z,28.80
2022-08-10T15:24:16.004Z,28.80
2022-08-10T15:29:22.182Z,29.00
2022-08-10T15:51:10.143Z,29.10
2022-08-10T15:55:42.961Z,29.00
2022-08-10T16:00:12.695Z,29.00
2022-08-10T16:08:07.862Z,29.10
2022-08-10T16:20:26.906Z,29.10
2022-08-10T16:24:57.852Z,29.10
2022-08-10T16:29:28.054Z,29.10
2022-08-10T16:33:59.996Z,29.10
2022-08-10T16:38:28.984Z,29.00
2022-08-10T16:42:58.121Z,29.00
2022-08-10T16:56:09.604Z,29.00
2022-08-10T16:59:53.408Z,29.00
2022-08-10T17:04:09.078Z,29.00
2022-08-10T17:08:32.627Z,29.10
2022-08-10T17:12:23.518Z,29.10
2022-08-10T17:16:27.903Z,29.00
2022-08-10T17:20:31.834Z,29.00
2022-08-10T17:29:54.162Z,28.90
2022-08-10T17:33:20.858Z,28.90
2022-08-10T17:37:05.926Z,28.90
2022-08-10T17:41:13.577Z,28.90
2022-08-10T17:44:56.510Z,28.80
2022-08-10T17:49:08.959Z,28.80
2022-08-10T17:53:56.993Z,28.80
2022-08-10T17:58:32.197Z,28.80
2022-08-10T18:02:39.758Z,28.80
2022-08-10T18:06:23.521Z,28.70
2022-08-10T18:10:30.191Z,28.70
2022-08-10T18:14:15.388Z,28.60
2022-08-10T18:18:25.492Z,28.60
2022-08-10T18:22:11.799Z,28.60
2022-08-10T18:30:48.413Z,28.50
2022-08-10T18:34:33.825Z,28.40
2022-08-10T18:38:40.627Z,28.30
2022-08-10T18:42:27.298Z,28.30
2022-08-10T18:46:34.458Z,28.20
2022-08-10T18:50:24.412Z,28.10
2022-08-10T18:54:46.600Z,27.90
2022-08-10T19:03:54.104Z,27.80
2022-08-10T19:08:30.215Z,27.60
2022-08-10T19:21:49.378Z,27.20
2022-08-10T19:26:42.378Z,27.00
2022-08-10T19:30:52.138Z,26.80
2022-08-10T19:35:19.834Z,26.60
2022-08-10T19:39:51.138Z,26.50
2022-08-10T19:44:21.727Z,26.30
2022-08-10T19:52:30.865Z,26.00
2022-08-10T19:56:34.580Z,25.90
2022-08-10T20:00:22.849Z,25.70
2022-08-10T20:04:14.019Z,25.50
2022-08-10T20:08:21.466Z,25.40
2022-08-10T20:12:08.149Z,25.30
2022-08-10T20:16:21.663Z,25.20
2022-08-10T20:20:14.067Z,25.10
2022-08-10T20:24:05.964Z,25.00
2022-08-10T20:28:19.214Z,24.90
2022-08-10T20:32:06.949Z,24.80
2022-08-10T20:36:43.235Z,24.60
2022-08-10T20:40:51.533Z,24.40
2022-08-10T20:44:54.189Z,24.10
2022-08-10T20:48:46.537Z,23.90
2022-08-10T20:52:30.273Z,23.70
2022-08-10T20:56:25.970Z,23.50
2022-08-10T21:00:13.092Z,23.30
2022-08-10T21:04:13.371Z,23.10
2022-08-10T21:08:11.758Z,22.90
2022-08-10T21:12:24.109Z,22.80
2022-08-10T21:16:48.395Z,22.60
2022-08-10T21:20:54.108Z,22.50
2022-08-10T21:25:04.529Z,22.30
2022-08-10T21:29:21.315Z,22.10
2022-08-10T21:33:28.046Z,21.90
2022-08-10T21:37:45.497Z,21.80
2022-08-10T21:42:32.037Z,21.70
2022-08-10T21:46:54.685Z,21.50
2022-08-10T21:51:05.968Z,21.40
2022-08-10T21:55:25.004Z,21.30
2022-08-10T21:59:58.117Z,21.20
2022-08-10T22:04:00.498Z,21.10
2022-08-10T22:08:01.521Z,20.90
2022-08-10T22:12:31.020Z,20.80
2022-08-10T22:17:02.233Z,20.70
2022-08-10T22:21:04.060Z,20.60
2022-08-10T22:25:22.169Z,20.50
2022-08-10T22:29:42.307Z,20.40
2022-08-10T22:33:59.826Z,20.30
2022-08-10T22:38:33.662Z,20.30
2022-08-10T22:42:59.316Z,20.30
2022-08-10T22:47:12.438Z,20.20
2022-08-10T22:51:06.806Z,20.30
2022-08-10T22:55:29.108Z,20.20
2022-08-10T22:59:11.435Z,20.20
2022-08-10T23:03:11.147Z,20.10
2022-08-10T23:07:18.249Z,20.10
2022-08-10T23:11:08.752Z,19.90
2022-08-10T23:15:13.300Z,19.80
2022-08-10T23:19:11.113Z,19.70
2022-08-10T23:23:04.746Z,19.50
2022-08-10T23:26:54.406Z,19.40
2022-08-10T23:30:39.100Z,19.30
2022-08-10T23:34:34.067Z,19.20
2022-08-10T23:38:29.287Z,19.10
2022-08-10T23:42:15.006Z,19.00
2022-08-10T23:46:03.489Z,19.00
2022-08-10T23:49:47.952Z,18.90
2022-08-10T23:53:40.640Z,18.90
2022-08-10T23:57:26.392Z,18.80
